sensor_id;sensor_type;location;lat;lon;timestamp;pressure;altitude;pressure_sealevel;temperature;humidity
10652;BME280;5374;42.742;23.266;2023-02-12T00:00:33;96484.69;;;0.46;50.93
10652;BME280;5374;42.742;23.266;2023-02-12T00:03:21;96502.81;;;0.48;51.27
10652;BME280;5374;42.742;23.266;2023-02-12T00:06:09;96504.00;;;0.61;51.12
10652;BME280;5374;42.742;23.266;2023-02-12T00:08:58;96507.75;;;0.59;51.15
10652;BME280;5374;42.742;23.266;2023-02-12T00:11:46;96498.78;;;0.61;51.22
10652;BME280;5374;42.742;23.266;2023-02-12T00:14:35;96495.84;;;0.56;51.55
10652;BME280;5374;42.742;23.266;2023-02-12T00:17:22;96501.56;;;0.60;51.34
10652;BME280;5374;42.742;23.266;2023-02-12T00:20:10;96495.53;;;0.67;51.26
10652;BME280;5374;42.742;23.266;2023-02-12T00:22:57;96496.50;;;0.66;51.26
10652;BME280;5374;42.742;23.266;2023-02-12T00:25:44;96491.25;;;0.58;51.81
10652;BME280;5374;42.742;23.266;2023-02-12T00:28:33;96476.38;;;0.51;51.63
10652;BME280;5374;42.742;23.266;2023-02-12T00:31:22;96489.47;;;0.59;51.95
10652;BME280;5374;42.742;23.266;2023-02-12T00:34:10;96486.84;;;0.51;51.83
10652;BME280;5374;42.742;23.266;2023-02-12T00:36:57;96467.25;;;0.55;52.18
10652;BME280;5374;42.742;23.266;2023-02-12T00:39:44;96476.56;;;0.57;52.12
10652;BME280;5374;42.742;23.266;2023-02-12T00:42:32;96479.00;;;0.59;52.23
10652;BME280;5374;42.742;23.266;2023-02-12T00:45:20;96466.13;;;0.65;52.11
10652;BME280;5374;42.742;23.266;2023-02-12T00:48:07;96450.09;;;0.52;52.08
10652;BME280;5374;42.742;23.266;2023-02-12T00:50:55;96434.91;;;0.56;52.24
10652;BME280;5374;42.742;23.266;2023-02-12T00:53:42;96447.16;;;0.55;52.08
10652;BME280;5374;42.742;23.266;2023-02-12T00:56:29;96439.81;;;0.59;52.13
10652;BME280;5374;42.742;23.266;2023-02-12T00:59:16;96435.41;;;0.67;51.82
10652;BME280;5374;42.742;23.266;2023-02-12T01:02:05;96445.69;;;0.69;51.82
10652;BME280;5374;42.742;23.266;2023-02-12T01:04:52;96445.06;;;0.67;51.72
10652;BME280;5374;42.742;23.266;2023-02-12T01:07:39;96404.03;;;0.35;51.92
10652;BME280;5374;42.742;23.266;2023-02-12T01:10:27;96439.31;;;0.55;51.81
10652;BME280;5374;42.742;23.266;2023-02-12T01:13:14;96454.84;;;0.65;51.83
10652;BME280;5374;42.742;23.266;2023-02-12T01:16:04;96462.19;;;0.69;52.06
10652;BME280;5374;42.742;23.266;2023-02-12T01:18:54;96446.19;;;0.64;52.05
10652;BME280;5374;42.742;23.266;2023-02-12T01:21:41;96459.75;;;0.76;52.00
10652;BME280;5374;42.742;23.266;2023-02-12T01:24:28;96433.13;;;0.64;52.05
10652;BME280;5374;42.742;23.266;2023-02-12T01:27:15;96437.03;;;0.60;52.75
10652;BME280;5374;42.742;23.266;2023-02-12T01:30:03;96456.31;;;0.67;53.26
10652;BME280;5374;42.742;23.266;2023-02-12T01:32:51;96437.03;;;0.52;53.63
10652;BME280;5374;42.742;23.266;2023-02-12T01:35:41;96448.47;;;0.59;53.51
10652;BME280;5374;42.742;23.266;2023-02-12T01:38:28;96436.72;;;0.55;53.56
10652;BME280;5374;42.742;23.266;2023-02-12T01:41:17;96398.19;;;0.41;54.12
10652;BME280;5374;42.742;23.266;2023-02-12T01:44:07;96432.31;;;0.56;54.39
10652;BME280;5374;42.742;23.266;2023-02-12T01:46:56;96417.75;;;0.53;54.66
10652;BME280;5374;42.742;23.266;2023-02-12T01:49:46;96424.47;;;0.56;54.95
10652;BME280;5374;42.742;23.266;2023-02-12T01:52:37;96421.69;;;0.49;55.00
10652;BME280;5374;42.742;23.266;2023-02-12T01:55:25;96422.00;;;0.46;54.62
10652;BME280;5374;42.742;23.266;2023-02-12T01:58:13;96430.66;;;0.47;54.64
10652;BME280;5374;42.742;23.266;2023-02-12T02:01:02;96436.69;;;0.39;54.78
10652;BME280;5374;42.742;23.266;2023-02-12T02:03:53;96436.06;;;0.53;54.83
10652;BME280;5374;42.742;23.266;2023-02-12T02:06:46;96399.63;;;0.19;55.16
10652;BME280;5374;42.742;23.266;2023-02-12T02:09:37;96440.28;;;0.46;55.80
10652;BME280;5374;42.742;23.266;2023-02-12T02:12:25;96430.19;;;0.43;55.89
10652;BME280;5374;42.742;23.266;2023-02-12T02:15:30;96417.09;;;0.27;56.32
10652;BME280;5374;42.742;23.266;2023-02-12T02:18:22;96422.47;;;0.25;56.36
10652;BME280;5374;42.742;23.266;2023-02-12T02:21:31;96432.44;;;0.22;56.48
10652;BME280;5374;42.742;23.266;2023-02-12T02:24:51;96417.59;;;0.22;56.32
10652;BME280;5374;42.742;23.266;2023-02-12T02:27:45;96414.97;;;0.14;56.40
10652;BME280;5374;42.742;23.266;2023-02-12T02:30:42;96426.56;;;0.20;56.65
10652;BME280;5374;42.742;23.266;2023-02-12T02:33:37;96415.13;;;0.21;56.61
10652;BME280;5374;42.742;23.266;2023-02-12T02:36:33;96394.72;;;0.00;56.98
10652;BME280;5374;42.742;23.266;2023-02-12T02:39:24;96425.25;;;0.16;56.96
10652;BME280;5374;42.742;23.266;2023-02-12T02:42:16;96423.91;;;0.12;57.31
10652;BME280;5374;42.742;23.266;2023-02-12T02:45:10;96417.91;;;0.19;57.43
10652;BME280;5374;42.742;23.266;2023-02-12T02:48:02;96405.16;;;0.16;57.09
10652;BME280;5374;42.742;23.266;2023-02-12T02:50:55;96415.63;;;0.32;56.77
10652;BME280;5374;42.742;23.266;2023-02-12T02:53:47;96406.47;;;0.12;57.21
10652;BME280;5374;42.742;23.266;2023-02-12T02:56:37;96431.97;;;0.34;56.82
10652;BME280;5374;42.742;23.266;2023-02-12T02:59:28;96433.44;;;0.37;57.04
10652;BME280;5374;42.742;23.266;2023-02-12T03:02:21;96430.81;;;0.37;56.97
10652;BME280;5374;42.742;23.266;2023-02-12T03:05:18;96434.59;;;0.43;56.56
10652;BME280;5374;42.742;23.266;2023-02-12T03:08:09;96434.25;;;0.54;56.21
10652;BME280;5374;42.742;23.266;2023-02-12T03:11:00;96439.97;;;0.57;56.00
10652;BME280;5374;42.742;23.266;2023-02-12T03:13:56;96436.22;;;0.60;55.94
10652;BME280;5374;42.742;23.266;2023-02-12T03:16:50;96436.38;;;0.75;55.44
10652;BME280;5374;42.742;23.266;2023-02-12T03:19:41;96432.94;;;0.74;55.21
10652;BME280;5374;42.742;23.266;2023-02-12T03:22:33;96420.88;;;0.65;55.10
10652;BME280;5374;42.742;23.266;2023-02-12T03:25:25;96419.38;;;0.79;54.66
10652;BME280;5374;42.742;23.266;2023-02-12T03:28:17;96417.28;;;0.82;54.66
10652;BME280;5374;42.742;23.266;2023-02-12T03:31:09;96406.16;;;0.80;54.46
10652;BME280;5374;42.742;23.266;2023-02-12T03:34:06;96398.97;;;0.82;54.63
10652;BME280;5374;42.742;23.266;2023-02-12T03:36:59;96404.69;;;0.86;54.36
10652;BME280;5374;42.742;23.266;2023-02-12T03:39:56;96405.66;;;0.85;54.29
10652;BME280;5374;42.742;23.266;2023-02-12T03:42:49;96408.94;;;0.87;54.61
10652;BME280;5374;42.742;23.266;2023-02-12T03:45:45;96399.75;;;0.91;54.49
10652;BME280;5374;42.742;23.266;2023-02-12T03:48:40;96417.06;;;0.92;54.74
10652;BME280;5374;42.742;23.266;2023-02-12T03:51:32;96396.16;;;0.92;54.52
10652;BME280;5374;42.742;23.266;2023-02-12T03:54:21;96393.53;;;1.08;54.34
10652;BME280;5374;42.742;23.266;2023-02-12T03:57:13;96399.41;;;1.10;54.39
10652;BME280;5374;42.742;23.266;2023-02-12T04:00:04;96401.00;;;1.19;54.06
10652;BME280;5374;42.742;23.266;2023-02-12T04:02:52;96406.38;;;1.34;54.14
10652;BME280;5374;42.742;23.266;2023-02-12T04:05:40;96405.41;;;1.35;54.21
10652;BME280;5374;42.742;23.266;2023-02-12T04:08:28;96396.75;;;1.34;54.22
10652;BME280;5374;42.742;23.266;2023-02-12T04:11:24;96414.69;;;1.46;54.16
10652;BME280;5374;42.742;23.266;2023-02-12T04:14:23;96416.81;;;1.42;54.06
10652;BME280;5374;42.742;23.266;2023-02-12T04:17:19;96412.72;;;1.48;53.57
10652;BME280;5374;42.742;23.266;2023-02-12T04:20:11;96428.47;;;1.31;54.33
10652;BME280;5374;42.742;23.266;2023-02-12T04:23:10;96426.44;;;1.50;54.21
10652;BME280;5374;42.742;23.266;2023-02-12T04:26:05;96423.03;;;1.41;54.08
10652;BME280;5374;42.742;23.266;2023-02-12T04:29:02;96437.91;;;1.49;54.22
10652;BME280;5374;42.742;23.266;2023-02-12T04:31:55;96435.94;;;1.51;54.26
10652;BME280;5374;42.742;23.266;2023-02-12T04:34:49;96430.53;;;1.52;54.32
10652;BME280;5374;42.742;23.266;2023-02-12T04:37:41;96434.72;;;1.61;53.92
10652;BME280;5374;42.742;23.266;2023-02-12T04:40:30;96426.38;;;1.66;53.86
10652;BME280;5374;42.742;23.266;2023-02-12T04:43:26;96432.56;;;1.73;53.73
10652;BME280;5374;42.742;23.266;2023-02-12T04:46:13;96425.88;;;1.70;53.80
10652;BME280;5374;42.742;23.266;2023-02-12T04:49:01;96436.50;;;1.77;53.95
10652;BME280;5374;42.742;23.266;2023-02-12T04:51:49;96438.56;;;1.82;53.87
10652;BME280;5374;42.742;23.266;2023-02-12T04:54:37;96447.91;;;1.84;53.58
10652;BME280;5374;42.742;23.266;2023-02-12T04:57:25;96432.06;;;1.78;53.56
10652;BME280;5374;42.742;23.266;2023-02-12T05:00:13;96447.44;;;1.81;53.45
10652;BME280;5374;42.742;23.266;2023-02-12T05:03:01;96430.91;;;1.80;53.34
10652;BME280;5374;42.742;23.266;2023-02-12T05:05:49;96421.63;;;1.69;53.49
10652;BME280;5374;42.742;23.266;2023-02-12T05:08:36;96453.03;;;1.69;53.80
10652;BME280;5374;42.742;23.266;2023-02-12T05:11:23;96446.84;;;1.62;53.77
10652;BME280;5374;42.742;23.266;2023-02-12T05:14:11;96445.38;;;1.60;53.93
10652;BME280;5374;42.742;23.266;2023-02-12T05:16:58;96442.47;;;1.55;54.16
10652;BME280;5374;42.742;23.266;2023-02-12T05:19:46;96446.22;;;1.52;54.61
10652;BME280;5374;42.742;23.266;2023-02-12T05:22:35;96462.06;;;1.59;54.23
10652;BME280;5374;42.742;23.266;2023-02-12T05:25:22;96448.69;;;1.54;54.27
10652;BME280;5374;42.742;23.266;2023-02-12T05:28:09;96466.63;;;1.65;54.07
10652;BME280;5374;42.742;23.266;2023-02-12T05:30:58;96464.06;;;1.57;54.92
10652;BME280;5374;42.742;23.266;2023-02-12T05:33:46;96468.47;;;1.56;55.17
10652;BME280;5374;42.742;23.266;2023-02-12T05:36:34;96457.03;;;1.49;54.99
10652;BME280;5374;42.742;23.266;2023-02-12T05:39:23;96454.09;;;1.44;55.13
10652;BME280;5374;42.742;23.266;2023-02-12T05:42:10;96472.72;;;1.57;55.24
10652;BME280;5374;42.742;23.266;2023-02-12T05:44:57;96465.88;;;1.48;55.60
10652;BME280;5374;42.742;23.266;2023-02-12T05:47:45;96489.25;;;1.58;55.75
10652;BME280;5374;42.742;23.266;2023-02-12T05:50:32;96476.78;;;1.68;56.19
10652;BME280;5374;42.742;23.266;2023-02-12T05:53:19;96479.56;;;1.66;56.14
10652;BME280;5374;42.742;23.266;2023-02-12T05:56:10;96492.16;;;1.63;57.60
10652;BME280;5374;42.742;23.266;2023-02-12T05:58:59;96477.44;;;1.62;57.74
10652;BME280;5374;42.742;23.266;2023-02-12T06:01:49;96485.94;;;1.64;58.26
10652;BME280;5374;42.742;23.266;2023-02-12T06:04:37;96498.19;;;1.71;60.42
10652;BME280;5374;42.742;23.266;2023-02-12T06:07:24;96495.56;;;1.71;61.84
10652;BME280;5374;42.742;23.266;2023-02-12T06:10:12;96491.50;;;1.69;61.75
10652;BME280;5374;42.742;23.266;2023-02-12T06:13:00;96494.09;;;1.69;62.22
10652;BME280;5374;42.742;23.266;2023-02-12T06:15:48;96506.22;;;1.70;61.94
10652;BME280;5374;42.742;23.266;2023-02-12T06:18:35;96486.91;;;1.71;61.90
10652;BME280;5374;42.742;23.266;2023-02-12T06:21:24;96492.13;;;1.79;62.87
10652;BME280;5374;42.742;23.266;2023-02-12T06:24:12;96493.41;;;1.83;65.85
10652;BME280;5374;42.742;23.266;2023-02-12T06:27:00;96483.75;;;1.84;67.24
10652;BME280;5374;42.742;23.266;2023-02-12T06:29:48;96476.09;;;1.74;68.72
10652;BME280;5374;42.742;23.266;2023-02-12T06:32:36;96472.16;;;1.78;69.21
10652;BME280;5374;42.742;23.266;2023-02-12T06:35:23;96479.19;;;1.78;69.58
10652;BME280;5374;42.742;23.266;2023-02-12T06:38:11;96480.53;;;1.74;70.53
10652;BME280;5374;42.742;23.266;2023-02-12T06:41:00;96473.00;;;1.62;70.81
10652;BME280;5374;42.742;23.266;2023-02-12T06:43:48;96490.19;;;1.73;71.41
10652;BME280;5374;42.742;23.266;2023-02-12T06:46:37;96475.13;;;1.67;71.52
10652;BME280;5374;42.742;23.266;2023-02-12T06:49:24;96492.13;;;1.79;71.28
10652;BME280;5374;42.742;23.266;2023-02-12T06:52:12;96487.50;;;1.81;71.47
10652;BME280;5374;42.742;23.266;2023-02-12T06:54:59;96491.41;;;1.93;71.06
10652;BME280;5374;42.742;23.266;2023-02-12T06:57:46;96499.09;;;1.95;70.85
10652;BME280;5374;42.742;23.266;2023-02-12T07:00:33;96487.78;;;2.02;70.21
10652;BME280;5374;42.742;23.266;2023-02-12T07:03:22;96493.69;;;1.96;70.40
10652;BME280;5374;42.742;23.266;2023-02-12T07:06:09;96487.59;;;2.04;70.16
10652;BME280;5374;42.742;23.266;2023-02-12T07:08:58;96491.31;;;2.18;69.63
10652;BME280;5374;42.742;23.266;2023-02-12T07:11:45;96479.84;;;2.19;68.95
10652;BME280;5374;42.742;23.266;2023-02-12T07:14:32;96490.97;;;2.21;68.80
10652;BME280;5374;42.742;23.266;2023-02-12T07:17:19;96491.78;;;2.21;68.60
10652;BME280;5374;42.742;23.266;2023-02-12T07:20:09;96496.06;;;2.14;68.45
10652;BME280;5374;42.742;23.266;2023-02-12T07:22:56;96506.69;;;2.21;68.49
10652;BME280;5374;42.742;23.266;2023-02-12T07:25:53;96513.09;;;2.18;68.73
10652;BME280;5374;42.742;23.266;2023-02-12T07:28:41;96512.25;;;2.18;68.66
10652;BME280;5374;42.742;23.266;2023-02-12T07:31:28;96510.47;;;2.18;68.72
10652;BME280;5374;42.742;23.266;2023-02-12T07:34:15;96514.66;;;2.27;68.32
10652;BME280;5374;42.742;23.266;2023-02-12T07:37:04;96503.84;;;2.30;68.10
10652;BME280;5374;42.742;23.266;2023-02-12T07:39:52;96520.22;;;2.32;68.10
10652;BME280;5374;42.742;23.266;2023-02-12T07:42:39;96520.03;;;2.34;68.30
10652;BME280;5374;42.742;23.266;2023-02-12T07:45:26;96523.31;;;2.36;68.08
10652;BME280;5374;42.742;23.266;2023-02-12T07:48:14;96519.38;;;2.40;68.09
10652;BME280;5374;42.742;23.266;2023-02-12T07:51:06;96510.69;;;2.39;68.25
10652;BME280;5374;42.742;23.266;2023-02-12T07:53:55;96511.66;;;2.38;68.30
10652;BME280;5374;42.742;23.266;2023-02-12T07:56:43;96522.16;;;2.38;68.57
10652;BME280;5374;42.742;23.266;2023-02-12T07:59:31;96512.19;;;2.34;68.79
10652;BME280;5374;42.742;23.266;2023-02-12T08:02:18;96521.03;;;2.33;68.69
10652;BME280;5374;42.742;23.266;2023-02-12T08:05:06;96515.44;;;2.36;68.74
10652;BME280;5374;42.742;23.266;2023-02-12T08:07:53;96530.97;;;2.46;68.69
10652;BME280;5374;42.742;23.266;2023-02-12T08:10:42;96529.75;;;2.56;68.67
10652;BME280;5374;42.742;23.266;2023-02-12T08:13:29;96530.69;;;2.63;68.41
10652;BME280;5374;42.742;23.266;2023-02-12T08:16:18;96514.03;;;2.56;68.20
10652;BME280;5374;42.742;23.266;2023-02-12T08:19:06;96519.78;;;2.74;68.21
10652;BME280;5374;42.742;23.266;2023-02-12T08:21:54;96529.59;;;2.81;67.93
10652;BME280;5374;42.742;23.266;2023-02-12T08:24:42;96499.06;;;2.65;67.82
10652;BME280;5374;42.742;23.266;2023-02-12T08:27:30;96541.50;;;2.91;67.70
10652;BME280;5374;42.742;23.266;2023-02-12T08:30:18;96527.91;;;2.88;67.86
10652;BME280;5374;42.742;23.266;2023-02-12T08:33:05;96533.50;;;2.85;67.61
10652;BME280;5374;42.742;23.266;2023-02-12T08:36:00;96544.94;;;2.92;67.74
10652;BME280;5374;42.742;23.266;2023-02-12T08:38:47;96540.41;;;2.86;67.72
10652;BME280;5374;42.742;23.266;2023-02-12T08:41:34;96552.66;;;2.93;67.29
10652;BME280;5374;42.742;23.266;2023-02-12T08:44:23;96556.13;;;2.86;67.25
10652;BME280;5374;42.742;23.266;2023-02-12T08:47:10;96554.53;;;2.77;66.99
10652;BME280;5374;42.742;23.266;2023-02-12T08:50:01;96562.72;;;2.82;67.27
10652;BME280;5374;42.742;23.266;2023-02-12T08:52:51;96542.00;;;2.64;67.27
10652;BME280;5374;42.742;23.266;2023-02-12T08:55:38;96561.47;;;2.69;67.37
10652;BME280;5374;42.742;23.266;2023-02-12T08:58:25;96568.53;;;2.69;67.54
10652;BME280;5374;42.742;23.266;2023-02-12T09:01:16;96568.94;;;2.81;67.30
10652;BME280;5374;42.742;23.266;2023-02-12T09:04:03;96561.84;;;2.89;67.64
10652;BME280;5374;42.742;23.266;2023-02-12T09:06:51;96578.88;;;2.93;67.49
10652;BME280;5374;42.742;23.266;2023-02-12T09:09:38;96580.31;;;2.96;67.78
10652;BME280;5374;42.742;23.266;2023-02-12T09:12:28;96576.06;;;2.95;67.98
10652;BME280;5374;42.742;23.266;2023-02-12T09:15:16;96572.22;;;3.05;67.96
10652;BME280;5374;42.742;23.266;2023-02-12T09:18:05;96556.13;;;3.08;67.82
10652;BME280;5374;42.742;23.266;2023-02-12T09:20:52;96566.16;;;3.05;67.83
10652;BME280;5374;42.742;23.266;2023-02-12T09:23:39;96569.38;;;3.15;67.65
10652;BME280;5374;42.742;23.266;2023-02-12T09:26:27;96577.47;;;3.05;67.89
10652;BME280;5374;42.742;23.266;2023-02-12T09:29:14;96569.09;;;3.10;67.66
10652;BME280;5374;42.742;23.266;2023-02-12T09:32:01;96577.59;;;3.12;68.18
10652;BME280;5374;42.742;23.266;2023-02-12T09:34:52;96575.72;;;3.21;67.62
10652;BME280;5374;42.742;23.266;2023-02-12T09:37:39;96554.72;;;2.98;67.38
10652;BME280;5374;42.742;23.266;2023-02-12T09:40:34;96585.66;;;3.33;67.06
10652;BME280;5374;42.742;23.266;2023-02-12T09:43:29;96583.75;;;3.42;66.96
10652;BME280;5374;42.742;23.266;2023-02-12T09:46:26;96580.94;;;3.43;65.97
10652;BME280;5374;42.742;23.266;2023-02-12T09:49:24;96598.94;;;3.55;65.65
10652;BME280;5374;42.742;23.266;2023-02-12T09:52:19;96596.53;;;3.45;65.88
10652;BME280;5374;42.742;23.266;2023-02-12T09:55:13;96599.16;;;3.45;66.21
10652;BME280;5374;42.742;23.266;2023-02-12T09:58:04;96598.03;;;3.62;65.92
10652;BME280;5374;42.742;23.266;2023-02-12T10:00:53;96598.41;;;3.74;65.59
10652;BME280;5374;42.742;23.266;2023-02-12T10:03:41;96594.00;;;3.74;65.21
10652;BME280;5374;42.742;23.266;2023-02-12T10:06:32;96608.47;;;3.85;65.13
10652;BME280;5374;42.742;23.266;2023-02-12T10:09:37;96606.44;;;3.95;65.03
10652;BME280;5374;42.742;23.266;2023-02-12T10:12:31;96613.50;;;4.09;64.55
10652;BME280;5374;42.742;23.266;2023-02-12T10:15:36;96601.09;;;4.03;64.22
10652;BME280;5374;42.742;23.266;2023-02-12T10:18:48;96606.81;;;4.22;64.21
10652;BME280;5374;42.742;23.266;2023-02-12T10:21:45;96589.41;;;4.21;64.48
10652;BME280;5374;42.742;23.266;2023-02-12T10:27:37;96599.16;;;4.56;63.14
10652;BME280;5374;42.742;23.266;2023-02-12T10:30:30;96598.81;;;4.59;62.76
10652;BME280;5374;42.742;23.266;2023-02-12T10:33:25;96593.97;;;4.77;61.96
10652;BME280;5374;42.742;23.266;2023-02-12T10:36:28;96591.63;;;5.04;61.36
10652;BME280;5374;42.742;23.266;2023-02-12T10:39:21;96590.78;;;5.39;60.52
10652;BME280;5374;42.742;23.266;2023-02-12T10:42:13;96579.97;;;5.56;59.32
10652;BME280;5374;42.742;23.266;2023-02-12T10:45:04;96597.16;;;5.73;59.35
10652;BME280;5374;42.742;23.266;2023-02-12T10:48:00;96587.09;;;5.83;59.15
10652;BME280;5374;42.742;23.266;2023-02-12T10:51:14;96583.34;;;5.92;59.34
10652;BME280;5374;42.742;23.266;2023-02-12T10:54:35;96602.03;;;5.97;58.78
10652;BME280;5374;42.742;23.266;2023-02-12T10:57:23;96601.91;;;5.84;59.17
10652;BME280;5374;42.742;23.266;2023-02-12T11:00:23;96578.44;;;5.89;58.75
10652;BME280;5374;42.742;23.266;2023-02-12T11:03:19;96591.97;;;6.07;57.61
10652;BME280;5374;42.742;23.266;2023-02-12T11:06:12;96586.53;;;6.15;57.96
10652;BME280;5374;42.742;23.266;2023-02-12T11:09:00;96592.19;;;6.12;57.79
10652;BME280;5374;42.742;23.266;2023-02-12T11:11:47;96591.84;;;6.22;57.72
10652;BME280;5374;42.742;23.266;2023-02-12T11:14:34;96595.06;;;6.17;57.44
10652;BME280;5374;42.742;23.266;2023-02-12T11:17:28;96590.59;;;6.18;57.46
10652;BME280;5374;42.742;23.266;2023-02-12T11:20:23;96593.59;;;6.43;57.67
10652;BME280;5374;42.742;23.266;2023-02-12T11:23:24;96587.97;;;6.53;57.78
10652;BME280;5374;42.742;23.266;2023-02-12T11:26:24;96587.66;;;6.75;57.61
10652;BME280;5374;42.742;23.266;2023-02-12T11:29:17;96581.22;;;6.91;56.77
10652;BME280;5374;42.742;23.266;2023-02-12T11:32:06;96581.03;;;6.93;55.84
10652;BME280;5374;42.742;23.266;2023-02-12T11:35:05;96587.34;;;7.05;55.20
10652;BME280;5374;42.742;23.266;2023-02-12T11:38:01;96579.63;;;7.03;54.92
10652;BME280;5374;42.742;23.266;2023-02-12T11:40:55;96598.94;;;7.10;55.12
10652;BME280;5374;42.742;23.266;2023-02-12T11:43:43;96603.41;;;7.10;54.80
10652;BME280;5374;42.742;23.266;2023-02-12T11:46:31;96593.66;;;7.10;54.73
10652;BME280;5374;42.742;23.266;2023-02-12T11:49:21;96571.69;;;7.03;54.83
10652;BME280;5374;42.742;23.266;2023-02-12T11:52:18;96594.91;;;7.28;54.50
10652;BME280;5374;42.742;23.266;2023-02-12T11:55:18;96581.28;;;7.17;54.51
10652;BME280;5374;42.742;23.266;2023-02-12T11:58:15;96574.38;;;7.23;54.19
10652;BME280;5374;42.742;23.266;2023-02-12T12:01:15;96590.47;;;7.22;54.47
10652;BME280;5374;42.742;23.266;2023-02-12T12:04:15;96587.81;;;7.22;54.59
10652;BME280;5374;42.742;23.266;2023-02-12T12:07:11;96577.63;;;7.12;54.75
10652;BME280;5374;42.742;23.266;2023-02-12T12:10:11;96590.03;;;7.18;54.87
10652;BME280;5374;42.742;23.266;2023-02-12T12:13:02;96585.16;;;7.15;54.66
10652;BME280;5374;42.742;23.266;2023-02-12T12:15:54;96571.88;;;7.02;54.74
10652;BME280;5374;42.742;23.266;2023-02-12T12:19:04;96595.09;;;7.13;54.64
10652;BME280;5374;42.742;23.266;2023-02-12T12:22:17;96595.88;;;7.07;55.15
10652;BME280;5374;42.742;23.266;2023-02-12T12:25:19;96594.44;;;7.04;55.11
10652;BME280;5374;42.742;23.266;2023-02-12T12:28:16;96588.94;;;6.93;55.37
10652;BME280;5374;42.742;23.266;2023-02-12T12:31:11;96599.72;;;6.98;55.56
10652;BME280;5374;42.742;23.266;2023-02-12T12:34:05;96590.59;;;7.00;55.72
10652;BME280;5374;42.742;23.266;2023-02-12T12:37:09;96590.34;;;6.89;55.50
10652;BME280;5374;42.742;23.266;2023-02-12T12:40:18;96593.41;;;6.92;55.57
10652;BME280;5374;42.742;23.266;2023-02-12T12:43:13;96603.38;;;6.97;55.53
10652;BME280;5374;42.742;23.266;2023-02-12T12:49:36;96596.66;;;7.01;55.98
10652;BME280;5374;42.742;23.266;2023-02-12T12:52:45;96590.78;;;7.05;55.40
10652;BME280;5374;42.742;23.266;2023-02-12T12:55:53;96608.00;;;6.88;55.39
10652;BME280;5374;42.742;23.266;2023-02-12T13:05:48;96600.03;;;6.34;56.45
10652;BME280;5374;42.742;23.266;2023-02-12T13:08:56;96604.03;;;6.23;56.61
10652;BME280;5374;42.742;23.266;2023-02-12T13:12:02;96618.78;;;6.45;56.69
10652;BME280;5374;42.742;23.266;2023-02-12T13:15:00;96613.22;;;6.34;56.64
10652;BME280;5374;42.742;23.266;2023-02-12T13:18:03;96616.25;;;6.31;56.83
10652;BME280;5374;42.742;23.266;2023-02-12T13:21:01;96627.47;;;6.39;56.89
10652;BME280;5374;42.742;23.266;2023-02-12T13:23:52;96607.50;;;6.24;57.03
10652;BME280;5374;42.742;23.266;2023-02-12T13:26:47;96627.03;;;6.36;57.31
10652;BME280;5374;42.742;23.266;2023-02-12T13:29:43;96623.16;;;6.32;57.02
10652;BME280;5374;42.742;23.266;2023-02-12T13:32:36;96618.28;;;6.29;57.20
10652;BME280;5374;42.742;23.266;2023-02-12T13:35:31;96580.13;;;5.97;57.00
10652;BME280;5374;42.742;23.266;2023-02-12T13:38:29;96621.06;;;6.21;57.09
10652;BME280;5374;42.742;23.266;2023-02-12T13:41:19;96638.38;;;6.30;57.20
10652;BME280;5374;42.742;23.266;2023-02-12T13:44:13;96637.50;;;6.23;57.22
10652;BME280;5374;42.742;23.266;2023-02-12T13:47:15;96626.66;;;6.11;57.28
10652;BME280;5374;42.742;23.266;2023-02-12T13:50:14;96635.00;;;6.14;57.08
10652;BME280;5374;42.742;23.266;2023-02-12T13:53:14;96628.78;;;6.22;57.23
10652;BME280;5374;42.742;23.266;2023-02-12T13:56:10;96649.31;;;6.27;56.88
10652;BME280;5374;42.742;23.266;2023-02-12T13:59:37;96645.38;;;6.16;57.12
10652;BME280;5374;42.742;23.266;2023-02-12T14:02:44;96655.81;;;6.03;58.23
10652;BME280;5374;42.742;23.266;2023-02-12T14:05:34;96657.84;;;6.01;58.36
10652;BME280;5374;42.742;23.266;2023-02-12T14:08:33;96667.81;;;6.05;58.41
10652;BME280;5374;42.742;23.266;2023-02-12T14:11:23;96665.50;;;5.96;58.74
10652;BME280;5374;42.742;23.266;2023-02-12T14:14:12;96682.06;;;5.90;58.90
10652;BME280;5374;42.742;23.266;2023-02-12T14:20:26;96679.66;;;5.73;59.24
10652;BME280;5374;42.742;23.266;2023-02-12T14:23:24;96679.78;;;5.65;59.33
10652;BME280;5374;42.742;23.266;2023-02-12T14:26:12;96685.50;;;5.69;59.61
10652;BME280;5374;42.742;23.266;2023-02-12T14:29:04;96691.13;;;5.66;59.96
10652;BME280;5374;42.742;23.266;2023-02-12T14:32:00;96677.56;;;5.47;60.12
10652;BME280;5374;42.742;23.266;2023-02-12T14:34:47;96711.34;;;5.59;60.45
10652;BME280;5374;42.742;23.266;2023-02-12T14:37:36;96702.72;;;5.50;60.42
10652;BME280;5374;42.742;23.266;2023-02-12T14:40:39;96710.81;;;5.48;60.85
10652;BME280;5374;42.742;23.266;2023-02-12T14:43:33;96650.91;;;5.14;60.91
10652;BME280;5374;42.742;23.266;2023-02-12T14:46:44;96722.25;;;5.56;61.01
10652;BME280;5374;42.742;23.266;2023-02-12T14:49:35;96714.09;;;5.50;60.94
10652;BME280;5374;42.742;23.266;2023-02-12T14:52:26;96721.72;;;5.45;61.16
10652;BME280;5374;42.742;23.266;2023-02-12T14:55:23;96717.28;;;5.46;60.95
10652;BME280;5374;42.742;23.266;2023-02-12T14:58:16;96721.72;;;5.45;60.99
10652;BME280;5374;42.742;23.266;2023-02-12T15:01:05;96718.03;;;5.40;61.01
10652;BME280;5374;42.742;23.266;2023-02-12T15:03:54;96735.66;;;5.39;61.11
10652;BME280;5374;42.742;23.266;2023-02-12T15:06:49;96742.63;;;5.47;60.94
10652;BME280;5374;42.742;23.266;2023-02-12T15:09:43;96728.66;;;5.32;61.20
10652;BME280;5374;42.742;23.266;2023-02-12T15:12:37;96747.91;;;5.32;61.61
10652;BME280;5374;42.742;23.266;2023-02-12T15:15:28;96753.19;;;5.32;62.15
10652;BME280;5374;42.742;23.266;2023-02-12T15:18:21;96750.00;;;5.22;62.34
10652;BME280;5374;42.742;23.266;2023-02-12T15:21:17;96754.03;;;5.18;62.45
10652;BME280;5374;42.742;23.266;2023-02-12T15:24:09;96763.34;;;5.21;62.50
10652;BME280;5374;42.742;23.266;2023-02-12T15:26:57;96778.44;;;5.12;62.73
10652;BME280;5374;42.742;23.266;2023-02-12T15:29:48;96789.88;;;5.04;62.94
10652;BME280;5374;42.742;23.266;2023-02-12T15:32:37;96794.44;;;4.96;63.56
10652;BME280;5374;42.742;23.266;2023-02-12T15:35:27;96794.63;;;4.94;63.60
10652;BME280;5374;42.742;23.266;2023-02-12T15:38:21;96793.41;;;4.82;63.97